Time;durP1;ratioP1;P1;durP2;ratioP2;P2;SDS_P1;SDS_P2;PMS_P1;PMS_P2;Temp;Humidity;BMP_temperature;BMP_pressure;BME280_temperature;BME280_humidity;BME280_pressure;Samples;Min_cycle;Max_cycle;Signal;HPM_P1;HPM_P2
2023/06/07 00:01:08;;;;;;;8.30;5.90;;;14.20;99.90;;;;;;4998249;28;20476;-65
2023/06/07 00:03:39;;;;;;;10.03;6.70;;;14.20;99.90;;;;;;4995310;28;20492;-66
2023/06/07 00:06:08;;;;;;;7.60;6.03;;;14.10;99.90;;;;;;4997238;28;20473;-66
2023/06/07 00:08:36;;;;;;;6.30;5.63;;;14.10;99.90;;;;;;4997947;28;20480;-66
2023/06/07 00:11:04;;;;;;;10.20;6.90;;;14.00;99.90;;;;;;5001159;28;20534;-66
2023/06/07 00:13:36;;;;;;;7.40;6.60;;;14.00;99.90;;;;;;5008643;28;20494;-66
2023/06/07 00:16:05;;;;;;;8.67;5.97;;;13.90;99.90;;;;;;5001926;28;21049;-66
2023/06/07 00:18:33;;;;;;;9.13;5.67;;;13.90;99.90;;;;;;4995434;28;21069;-66
2023/06/07 00:21:04;;;;;;;8.30;6.43;;;13.90;99.90;;;;;;4997308;28;20494;-66
2023/06/07 00:23:32;;;;;;;8.37;6.20;;;13.90;99.90;;;;;;4997574;28;20583;-66
2023/06/07 00:26:00;;;;;;;8.70;6.70;;;13.80;99.90;;;;;;4996894;28;20846;-66
2023/06/07 00:28:29;;;;;;;14.00;6.57;;;13.80;99.90;;;;;;5001808;28;20457;-66
2023/06/07 00:30:57;;;;;;;12.43;6.37;;;13.70;99.90;;;;;;4996903;28;20646;-66
2023/06/07 00:33:25;;;;;;;6.90;6.20;;;13.70;99.90;;;;;;4995844;28;20538;-66
2023/06/07 00:35:53;;;;;;;7.67;6.73;;;13.60;99.90;;;;;;5001113;28;20464;-66
2023/06/07 00:38:23;;;;;;;9.90;5.93;;;13.50;99.90;;;;;;5000957;28;20475;-66
2023/06/07 00:40:51;;;;;;;7.73;6.33;;;13.50;99.90;;;;;;5011987;28;20526;-66
2023/06/07 00:43:19;;;;;;;12.97;6.73;;;13.50;99.90;;;;;;5020203;28;20512;-66
2023/06/07 00:45:47;;;;;;;8.80;6.23;;;13.50;99.90;;;;;;5017028;28;20514;-66
2023/06/07 00:48:15;;;;;;;11.60;6.50;;;13.40;99.90;;;;;;5001547;28;20473;-66
2023/06/07 00:50:44;;;;;;;10.20;5.83;;;13.40;99.90;;;;;;4998945;28;21821;-66
2023/06/07 00:53:12;;;;;;;7.90;5.97;;;13.30;99.90;;;;;;5000138;28;20493;-66
2023/06/07 00:55:42;;;;;;;8.47;6.30;;;13.30;99.90;;;;;;4997990;28;20559;-71
2023/06/07 00:58:10;;;;;;;11.73;6.30;;;13.20;99.90;;;;;;4995887;28;20483;-65
2023/06/07 01:00:38;;;;;;;11.73;6.43;;;13.10;99.90;;;;;;4989902;28;20496;-67
2023/06/07 01:03:06;;;;;;;8.87;6.30;;;13.10;99.90;;;;;;4992905;28;20701;-66
2023/06/07 01:05:34;;;;;;;10.40;6.00;;;13.00;99.90;;;;;;4994095;28;20495;-66
2023/06/07 01:08:02;;;;;;;8.57;6.07;;;13.00;99.90;;;;;;4990020;28;20547;-66
2023/06/07 01:10:31;;;;;;;10.90;6.10;;;13.00;99.90;;;;;;4990156;28;20937;-66
2023/06/07 01:13:03;;;;;;;10.87;6.60;;;13.00;99.90;;;;;;4986414;28;20950;-65
2023/06/07 01:15:32;;;;;;;9.00;5.60;;;13.00;99.90;;;;;;4992777;28;20495;-66
2023/06/07 01:18:01;;;;;;;8.40;6.70;;;13.00;99.90;;;;;;4995578;28;20479;-66
2023/06/07 01:20:30;;;;;;;6.73;6.13;;;13.00;99.90;;;;;;4998318;28;20515;-65
2023/06/07 01:23:01;;;;;;;9.07;5.93;;;13.00;99.90;;;;;;4998285;28;20591;-66
2023/06/07 01:25:31;;;;;;;12.63;6.70;;;12.90;99.90;;;;;;4995497;28;22743;-66
2023/06/07 01:28:03;;;;;;;9.43;6.33;;;12.90;99.90;;;;;;4999068;28;20468;-66
2023/06/07 01:30:32;;;;;;;12.60;7.23;;;12.90;99.90;;;;;;4998714;28;20473;-63
2023/06/07 01:33:04;;;;;;;7.00;5.60;;;12.90;99.90;;;;;;4993120;28;20592;-64
2023/06/07 01:35:33;;;;;;;12.47;6.93;;;12.90;99.90;;;;;;4995033;28;20650;-63
2023/06/07 01:38:02;;;;;;;10.43;6.30;;;12.80;99.90;;;;;;4998875;28;20592;-64
2023/06/07 01:40:34;;;;;;;10.37;6.17;;;12.80;99.90;;;;;;4998233;28;21048;-64
2023/06/07 01:43:03;;;;;;;11.40;5.70;;;12.70;99.90;;;;;;4993212;28;20563;-64
2023/06/07 01:45:32;;;;;;;9.13;6.23;;;12.70;99.90;;;;;;5001588;28;20469;-64
2023/06/07 01:48:01;;;;;;;9.60;6.43;;;12.70;99.90;;;;;;4998064;28;20503;-64
2023/06/07 01:50:30;;;;;;;10.43;6.70;;;12.60;99.90;;;;;;4997824;28;20474;-63
2023/06/07 01:52:58;;;;;;;11.43;6.20;;;12.50;99.90;;;;;;4998236;28;20511;-64
2023/06/07 01:55:27;;;;;;;11.30;6.20;;;12.50;99.90;;;;;;5000011;28;20473;-64
2023/06/07 01:58:04;;;;;;;7.43;6.07;;;12.50;99.90;;;;;;4996866;28;20534;-64
2023/06/07 02:00:39;;;;;;;7.97;5.87;;;12.50;99.90;;;;;;5010127;28;20608;-63
2023/06/07 02:03:14;;;;;;;9.03;6.37;;;12.50;99.90;;;;;;5014930;28;20480;-62
2023/06/07 02:05:48;;;;;;;7.13;5.83;;;12.50;99.90;;;;;;4995569;28;20475;-62
2023/06/07 02:08:25;;;;;;;8.90;5.40;;;12.50;99.90;;;;;;4989171;28;20500;-63
2023/06/07 02:10:53;;;;;;;10.90;6.30;;;12.50;99.90;;;;;;4999197;28;20470;-64
2023/06/07 02:13:24;;;;;;;6.33;5.50;;;12.40;99.90;;;;;;4995421;28;20554;-64
2023/06/07 02:15:52;;;;;;;10.23;6.10;;;12.30;99.90;;;;;;4995940;28;20994;-64
2023/06/07 02:18:21;;;;;;;13.17;7.60;;;12.30;99.90;;;;;;4985764;28;20592;-62
2023/06/07 02:20:49;;;;;;;10.53;6.10;;;12.30;99.90;;;;;;4991050;28;20526;-63
2023/06/07 02:23:17;;;;;;;8.33;6.17;;;12.30;99.90;;;;;;4987722;28;20518;-63
2023/06/07 02:25:45;;;;;;;12.53;7.03;;;12.30;99.90;;;;;;4987957;28;20496;-63
2023/06/07 02:28:13;;;;;;;10.40;6.73;;;12.30;99.90;;;;;;4991917;28;21075;-64
2023/06/07 02:30:42;;;;;;;7.77;6.33;;;12.30;99.90;;;;;;4989795;28;20483;-64
2023/06/07 02:33:13;;;;;;;14.67;8.00;;;12.20;99.90;;;;;;4986395;28;21081;-63
2023/06/07 02:35:45;;;;;;;15.23;7.23;;;12.20;99.90;;;;;;4989162;28;20480;-64
2023/06/07 02:38:16;;;;;;;11.87;6.57;;;12.20;99.90;;;;;;4988515;28;20476;-64
2023/06/07 02:40:44;;;;;;;11.90;7.00;;;12.20;99.90;;;;;;4992393;28;20464;-64
2023/06/07 02:43:14;;;;;;;9.20;6.50;;;12.10;99.90;;;;;;4991298;28;20579;-64
2023/06/07 02:45:43;;;;;;;12.77;7.57;;;12.10;99.90;;;;;;4991903;28;20551;-63
2023/06/07 02:48:12;;;;;;;8.77;6.03;;;12.10;99.90;;;;;;4990122;28;20973;-64
2023/06/07 02:50:40;;;;;;;9.90;6.50;;;12.10;99.90;;;;;;4994625;28;22537;-64
2023/06/07 02:53:08;;;;;;;11.53;7.23;;;12.00;99.90;;;;;;4985374;28;20911;-63
2023/06/07 02:55:36;;;;;;;10.13;7.07;;;12.00;99.90;;;;;;4989085;28;20519;-63
2023/06/07 02:58:05;;;;;;;11.57;7.10;;;12.00;99.90;;;;;;4993405;28;20494;-64
2023/06/07 03:00:33;;;;;;;11.30;7.80;;;12.00;99.90;;;;;;4993342;28;20484;-64
2023/06/07 03:03:05;;;;;;;11.30;6.70;;;12.00;99.90;;;;;;4981639;28;20491;-63
2023/06/07 03:05:33;;;;;;;9.47;6.73;;;12.00;99.90;;;;;;5004292;28;20515;-62
2023/06/07 03:08:02;;;;;;;11.33;6.73;;;11.90;99.90;;;;;;5009910;28;20959;-62
2023/06/07 03:10:30;;;;;;;14.13;6.90;;;11.90;99.90;;;;;;4994221;28;20493;-64
2023/06/07 03:12:58;;;;;;;14.00;7.43;;;11.80;99.90;;;;;;4985951;28;20948;-63
2023/06/07 03:15:27;;;;;;;10.30;6.73;;;11.80;99.90;;;;;;4991094;28;20560;-64
2023/06/07 03:17:55;;;;;;;10.40;7.50;;;11.80;99.90;;;;;;4993840;28;20570;-64
2023/06/07 03:20:28;;;;;;;11.60;7.33;;;11.80;99.90;;;;;;4992166;28;20903;-64
2023/06/07 03:22:56;;;;;;;13.67;7.30;;;11.80;99.90;;;;;;4989015;28;20524;-64
2023/06/07 03:25:24;;;;;;;16.00;9.77;;;11.80;99.90;;;;;;4997389;28;20499;-64
2023/06/07 03:27:52;;;;;;;11.00;6.97;;;11.80;99.90;;;;;;4996277;28;20496;-64
2023/06/07 03:30:20;;;;;;;11.27;7.33;;;11.80;99.90;;;;;;4992840;28;21015;-64
2023/06/07 03:32:48;;;;;;;15.90;8.07;;;11.70;99.90;;;;;;4989872;28;20566;-63
2023/06/07 03:35:16;;;;;;;11.70;7.07;;;11.70;99.90;;;;;;4996640;28;20523;-63
2023/06/07 03:37:45;;;;;;;11.77;6.60;;;11.70;99.90;;;;;;4997529;28;20552;-64
2023/06/07 03:40:14;;;;;;;9.00;6.80;;;11.70;99.90;;;;;;4993072;28;20476;-64
2023/06/07 03:42:42;;;;;;;13.37;7.07;;;11.80;99.90;;;;;;4994434;28;20575;-64
2023/06/07 03:45:10;;;;;;;12.43;6.87;;;11.80;99.90;;;;;;4996991;28;21151;-63
2023/06/07 03:47:39;;;;;;;14.43;7.23;;;11.70;99.90;;;;;;4995281;28;20531;-64
2023/06/07 03:50:08;;;;;;;13.60;6.87;;;11.70;99.90;;;;;;4993436;28;20500;-64
2023/06/07 03:52:36;;;;;;;9.97;6.50;;;11.70;99.90;;;;;;4992419;28;20517;-64
2023/06/07 03:55:07;;;;;;;10.30;6.80;;;11.70;99.90;;;;;;4999392;28;20543;-62
2023/06/07 03:57:35;;;;;;;15.10;7.47;;;11.70;99.90;;;;;;4998034;28;20473;-64
2023/06/07 04:00:06;;;;;;;11.83;6.80;;;11.80;99.90;;;;;;4987360;28;20472;-63
2023/06/07 04:02:35;;;;;;;13.13;6.80;;;11.80;99.90;;;;;;4990066;28;20518;-64
2023/06/07 04:05:03;;;;;;;17.47;7.30;;;11.70;99.90;;;;;;5007738;28;20556;-63
2023/06/07 04:07:32;;;;;;;12.27;6.83;;;11.70;99.90;;;;;;5021094;28;20492;-64
2023/06/07 04:10:00;;;;;;;9.23;6.30;;;11.60;99.90;;;;;;4991556;28;20558;-63
2023/06/07 04:12:32;;;;;;;9.47;6.10;;;11.60;99.90;;;;;;4992587;28;20571;-64
2023/06/07 04:15:00;;;;;;;10.10;6.50;;;11.70;99.90;;;;;;4991710;28;20475;-64
2023/06/07 04:17:28;;;;;;;9.40;6.23;;;11.70;99.90;;;;;;4994569;28;21103;-64
2023/06/07 04:19:56;;;;;;;11.43;6.50;;;11.80;99.90;;;;;;4993440;28;20547;-64
2023/06/07 04:22:25;;;;;;;10.27;6.90;;;11.90;99.90;;;;;;4994505;28;20491;-64
2023/06/07 04:24:53;;;;;;;7.63;6.30;;;11.80;99.90;;;;;;4992219;28;20922;-64
2023/06/07 04:27:23;;;;;;;13.70;6.83;;;11.90;99.90;;;;;;4996817;28;21139;-62
2023/06/07 04:29:53;;;;;;;15.33;7.93;;;12.00;99.90;;;;;;4992675;28;20506;-64
2023/06/07 04:32:21;;;;;;;8.90;7.20;;;11.90;99.90;;;;;;4977352;28;20582;-64
2023/06/07 04:34:51;;;;;;;11.37;7.17;;;11.90;99.90;;;;;;4988867;28;20464;-63
2023/06/07 04:37:19;;;;;;;8.47;6.17;;;11.90;99.90;;;;;;4997044;28;20468;-63
2023/06/07 04:39:48;;;;;;;10.40;7.80;;;12.00;99.90;;;;;;4991801;28;20565;-64
2023/06/07 04:42:17;;;;;;;14.90;9.07;;;11.90;99.90;;;;;;4989271;28;20527;-64
2023/06/07 04:44:45;;;;;;;14.13;8.00;;;11.90;99.90;;;;;;4998585;28;20477;-64
2023/06/07 04:47:14;;;;;;;17.20;9.00;;;11.80;99.90;;;;;;4989683;28;20480;-63
2023/06/07 04:49:43;;;;;;;13.20;8.30;;;11.70;99.90;;;;;;4983188;28;20479;-62
2023/06/07 04:52:12;;;;;;;12.47;8.00;;;11.70;99.90;;;;;;4993716;28;20612;-62
2023/06/07 04:54:41;;;;;;;10.93;8.40;;;11.70;99.90;;;;;;4990626;28;20982;-63
2023/06/07 04:57:09;;;;;;;11.27;7.97;;;11.80;99.90;;;;;;4993282;28;20934;-62
2023/06/07 04:59:42;;;;;;;8.73;7.70;;;11.90;99.90;;;;;;4995081;28;20574;-63
2023/06/07 05:02:10;;;;;;;8.83;7.40;;;12.00;99.90;;;;;;4974334;28;21105;-62
2023/06/07 05:04:40;;;;;;;14.83;8.87;;;12.00;99.90;;;;;;4980868;28;20809;-63
2023/06/07 05:07:08;;;;;;;11.17;7.63;;;12.00;99.90;;;;;;4990411;28;20476;-62
2023/06/07 05:09:37;;;;;;;11.60;7.17;;;11.90;99.90;;;;;;4987793;28;20469;-65
2023/06/07 05:12:06;;;;;;;9.63;7.37;;;11.90;99.90;;;;;;4992353;28;20479;-63
2023/06/07 05:14:34;;;;;;;8.60;7.70;;;11.90;99.90;;;;;;5001660;28;20558;-63
2023/06/07 05:17:02;;;;;;;9.63;7.87;;;11.90;99.90;;;;;;4987824;28;20476;-64
2023/06/07 05:19:30;;;;;;;10.00;8.07;;;11.90;99.90;;;;;;4994180;28;20467;-62
2023/06/07 05:21:59;;;;;;;9.27;7.30;;;11.90;99.90;;;;;;4993360;28;20492;-63
2023/06/07 05:24:27;;;;;;;8.00;7.07;;;11.80;99.90;;;;;;4990505;28;21022;-63
2023/06/07 05:26:55;;;;;;;8.67;7.63;;;11.60;99.90;;;;;;4997294;28;20510;-63
2023/06/07 05:29:23;;;;;;;9.73;7.60;;;11.60;99.90;;;;;;5005354;28;20476;-61
2023/06/07 05:31:56;;;;;;;7.80;6.67;;;11.50;99.90;;;;;;5004649;28;21246;-64
2023/06/07 05:34:24;;;;;;;6.60;5.63;;;11.50;99.90;;;;;;4995258;28;21132;-63
2023/06/07 05:36:52;;;;;;;10.43;5.87;;;11.50;99.90;;;;;;4994742;28;20556;-63
2023/06/07 05:39:22;;;;;;;7.00;6.30;;;11.60;99.90;;;;;;4991075;28;20909;-63
2023/06/07 05:41:50;;;;;;;6.63;5.83;;;11.70;99.90;;;;;;4993003;28;21197;-63
2023/06/07 05:44:18;;;;;;;8.73;6.63;;;11.70;99.90;;;;;;4993396;28;20587;-63
2023/06/07 05:46:46;;;;;;;8.23;7.20;;;11.80;99.90;;;;;;4995172;28;20568;-62
2023/06/07 05:49:14;;;;;;;11.20;7.30;;;11.80;99.90;;;;;;4993772;28;20486;-63
2023/06/07 05:51:42;;;;;;;8.87;7.93;;;11.90;99.90;;;;;;4998539;28;20488;-63
2023/06/07 05:54:10;;;;;;;8.13;7.33;;;12.00;99.90;;;;;;4989226;28;20616;-63
2023/06/07 05:56:40;;;;;;;7.70;7.00;;;12.10;99.90;;;;;;4991831;28;20847;-63
2023/06/07 05:59:08;;;;;;;8.87;7.97;;;12.10;99.90;;;;;;4994887;28;20998;-63
2023/06/07 06:01:36;;;;;;;8.57;7.77;;;12.20;99.90;;;;;;4991607;28;21006;-61
2023/06/07 06:04:04;;;;;;;10.37;7.93;;;12.20;99.90;;;;;;4995668;28;20497;-63
2023/06/07 06:06:33;;;;;;;8.97;7.60;;;12.10;99.90;;;;;;4998823;28;20465;-63
2023/06/07 06:09:01;;;;;;;7.87;7.07;;;12.20;99.90;;;;;;4999458;28;20464;-62
2023/06/07 06:11:29;;;;;;;9.90;7.70;;;12.20;99.90;;;;;;5020972;28;20699;-61
2023/06/07 06:13:58;;;;;;;7.77;6.70;;;12.30;99.90;;;;;;5004079;28;20552;-63
2023/06/07 06:16:26;;;;;;;8.00;7.20;;;12.30;99.90;;;;;;4996152;28;20475;-63
2023/06/07 06:18:54;;;;;;;8.93;7.27;;;12.40;99.90;;;;;;4996553;28;20476;-64
2023/06/07 06:21:22;;;;;;;8.43;7.60;;;12.50;99.90;;;;;;4996737;28;20519;-64
2023/06/07 06:23:50;;;;;;;8.10;7.27;;;12.50;99.90;;;;;;4992502;28;20495;-64
2023/06/07 06:26:21;;;;;;;7.93;7.13;;;12.60;99.90;;;;;;4988221;28;20856;-63
2023/06/07 06:28:49;;;;;;;7.80;7.00;;;12.70;99.90;;;;;;4997767;28;20491;-63
2023/06/07 06:31:19;;;;;;;7.27;6.57;;;12.90;99.90;;;;;;4990810;28;20498;-61
2023/06/07 06:33:47;;;;;;;8.90;8.10;;;12.90;99.90;;;;;;5000212;28;20518;-63
2023/06/07 06:36:15;;;;;;;7.30;6.60;;;12.90;99.90;;;;;;4996916;28;20551;-63
2023/06/07 06:38:44;;;;;;;8.33;7.53;;;13.00;99.90;;;;;;4992558;28;20475;-63
2023/06/07 06:41:12;;;;;;;8.33;7.50;;;13.00;99.90;;;;;;4994042;28;20587;-63
2023/06/07 06:43:40;;;;;;;10.33;9.37;;;12.90;99.90;;;;;;4997543;28;20555;-63
2023/06/07 06:46:08;;;;;;;8.57;7.77;;;12.80;99.90;;;;;;4998191;28;20568;-63
2023/06/07 06:48:38;;;;;;;10.80;7.77;;;12.80;99.90;;;;;;4987130;28;20534;-64
2023/06/07 06:51:06;;;;;;;8.63;7.83;;;12.80;99.90;;;;;;4998206;28;20496;-63
2023/06/07 06:53:34;;;;;;;8.87;8.07;;;12.80;99.90;;;;;;4992612;28;20580;-63
2023/06/07 06:56:03;;;;;;;8.37;7.57;;;12.70;99.90;;;;;;4999307;28;21059;-62
2023/06/07 06:58:34;;;;;;;7.70;7.00;;;12.80;99.90;;;;;;4998308;28;20563;-63
2023/06/07 07:01:03;;;;;;;7.87;7.10;;;12.80;99.90;;;;;;4992789;28;20660;-62
2023/06/07 07:03:31;;;;;;;8.20;7.30;;;12.90;99.90;;;;;;4994292;28;21060;-63
2023/06/07 07:06:00;;;;;;;7.43;6.73;;;12.90;99.90;;;;;;4988040;28;20468;-63
2023/06/07 07:08:28;;;;;;;7.90;7.10;;;13.00;99.90;;;;;;4995226;28;20629;-71
2023/06/07 07:11:01;;;;;;;8.80;8.00;;;13.00;99.90;;;;;;4996280;28;20483;-64
2023/06/07 07:13:32;;;;;;;9.43;8.53;;;13.10;99.90;;;;;;4994926;28;20492;-64
2023/06/07 07:16:00;;;;;;;9.80;8.90;;;13.20;99.90;;;;;;4994009;28;20474;-65
2023/06/07 07:18:28;;;;;;;10.77;9.77;;;13.20;99.90;;;;;;4995088;28;20482;-65
2023/06/07 07:20:56;;;;;;;11.27;10.27;;;13.20;99.90;;;;;;4997373;28;20480;-64
2023/06/07 07:23:25;;;;;;;13.13;11.83;;;13.30;99.90;;;;;;4991296;28;21040;-64
2023/06/07 07:25:53;;;;;;;12.93;11.63;;;13.30;99.90;;;;;;4979086;28;20480;-64
2023/06/07 07:28:21;;;;;;;12.60;11.40;;;13.40;99.90;;;;;;4974867;28;21045;-63
2023/06/07 07:30:49;;;;;;;11.70;10.60;;;13.50;99.90;;;;;;4991544;28;20571;-64
2023/06/07 07:33:17;;;;;;;9.20;8.30;;;13.60;99.90;;;;;;4978109;28;20926;-63
2023/06/07 07:35:45;;;;;;;9.53;8.30;;;13.60;99.90;;;;;;4992034;28;20580;-63
2023/06/07 07:38:15;;;;;;;10.87;8.97;;;13.70;99.90;;;;;;4986880;28;20503;-64
2023/06/07 07:40:45;;;;;;;7.77;7.07;;;13.70;99.90;;;;;;4993246;28;20543;-68
2023/06/07 07:43:13;;;;;;;9.97;9.00;;;13.80;99.90;;;;;;4990809;28;20523;-62
2023/06/07 07:45:40;;;;;;;9.07;8.17;;;13.80;99.90;;;;;;4996281;28;20488;-64
2023/06/07 07:48:08;;;;;;;9.73;7.93;;;13.90;99.90;;;;;;4994242;28;20472;-64
2023/06/07 07:50:38;;;;;;;10.33;7.50;;;14.00;99.90;;;;;;4997131;28;20477;-64
2023/06/07 07:53:06;;;;;;;8.50;7.60;;;14.10;99.90;;;;;;4994924;28;20523;-64
2023/06/07 07:55:35;;;;;;;9.63;8.63;;;14.20;99.90;;;;;;4994305;28;20543;-64
2023/06/07 07:58:05;;;;;;;12.10;7.27;;;14.30;99.90;;;;;;5002965;28;20487;-64
2023/06/07 08:00:34;;;;;;;10.20;7.23;;;14.40;99.90;;;;;;5017710;28;20531;-64
2023/06/07 08:03:03;;;;;;;8.07;6.50;;;14.50;99.90;;;;;;5003691;28;20476;-64
2023/06/07 08:05:31;;;;;;;11.17;6.77;;;14.60;99.90;;;;;;4992732;28;20579;-62
2023/06/07 08:08:00;;;;;;;8.30;6.43;;;14.80;99.90;;;;;;4997063;28;20560;-63
2023/06/07 08:10:28;;;;;;;10.20;7.80;;;14.90;99.90;;;;;;4995948;28;20572;-62
2023/06/07 08:12:56;;;;;;;7.83;6.50;;;15.00;99.90;;;;;;5006060;28;20492;-62
2023/06/07 08:15:25;;;;;;;12.30;6.43;;;15.10;99.90;;;;;;5018983;28;20491;-63
2023/06/07 08:17:53;;;;;;;9.70;7.10;;;15.10;99.90;;;;;;4996668;28;20500;-64
2023/06/07 08:20:21;;;;;;;11.00;6.37;;;15.10;99.90;;;;;;4998189;28;20504;-64
2023/06/07 08:22:50;;;;;;;10.13;7.10;;;15.20;99.90;;;;;;4999070;28;20921;-64
2023/06/07 08:25:20;;;;;;;10.30;7.03;;;15.30;99.90;;;;;;4991614;28;20493;-64
2023/06/07 08:27:49;;;;;;;9.50;6.20;;;15.40;99.90;;;;;;4997609;28;20464;-64
2023/06/07 08:30:17;;;;;;;9.10;6.27;;;15.40;99.90;;;;;;4993333;28;20508;-64
2023/06/07 08:32:47;;;;;;;9.63;6.80;;;15.50;99.90;;;;;;4995091;28;20495;-64
2023/06/07 08:35:15;;;;;;;10.57;6.10;;;15.60;99.90;;;;;;4994005;28;20560;-65
2023/06/07 08:37:43;;;;;;;11.43;6.47;;;15.70;99.90;;;;;;4996724;28;20555;-64
2023/06/07 08:40:11;;;;;;;12.73;6.60;;;15.80;99.90;;;;;;4997013;28;20468;-63
2023/06/07 08:42:40;;;;;;;9.23;6.40;;;15.90;99.90;;;;;;4994897;28;20493;-64
2023/06/07 08:45:09;;;;;;;9.50;7.30;;;16.10;99.90;;;;;;4996100;28;20528;-64
2023/06/07 08:47:37;;;;;;;9.00;6.70;;;16.20;99.90;;;;;;4989393;28;20483;-65
2023/06/07 08:50:12;;;;;;;8.60;7.70;;;16.30;99.90;;;;;;4997928;28;21110;-63
2023/06/07 08:52:42;;;;;;;7.97;6.70;;;16.40;99.90;;;;;;4999863;28;20484;-64
2023/06/07 08:55:12;;;;;;;10.10;7.00;;;16.60;99.90;;;;;;4996786;28;20491;-64
2023/06/07 08:57:40;;;;;;;7.93;7.07;;;16.60;99.90;;;;;;5001694;28;20468;-64
2023/06/07 09:00:11;;;;;;;10.27;7.53;;;16.70;99.90;;;;;;5002382;28;20843;-64
2023/06/07 09:02:39;;;;;;;9.87;7.40;;;16.70;99.90;;;;;;4996044;28;20495;-64
2023/06/07 09:05:10;;;;;;;10.33;8.03;;;16.80;99.90;;;;;;5000722;28;20488;-64
2023/06/07 09:07:38;;;;;;;10.10;9.10;;;16.90;99.90;;;;;;4997133;28;20476;-65
2023/06/07 09:10:08;;;;;;;10.60;9.50;;;17.10;99.90;;;;;;4999184;28;20480;-64
2023/06/07 09:12:36;;;;;;;10.27;8.77;;;17.10;99.90;;;;;;4997491;28;20604;-64
2023/06/07 09:15:07;;;;;;;9.87;8.43;;;17.20;99.90;;;;;;4998605;28;20559;-64
2023/06/07 09:17:52;;;;;;;12.47;9.17;;;17.30;99.90;;;;;;4997503;28;20839;-64
2023/06/07 09:20:23;;;;;;;13.90;9.30;;;17.40;99.90;;;;;;4998475;28;20472;-65
2023/06/07 09:23:02;;;;;;;10.27;8.53;;;17.60;99.90;;;;;;4997795;28;20512;-64
2023/06/07 09:25:31;;;;;;;9.90;8.43;;;17.80;99.90;;;;;;4999507;28;20485;-63
2023/06/07 09:28:00;;;;;;;10.80;8.70;;;17.90;99.90;;;;;;4995506;28;20559;-64
2023/06/07 09:30:28;;;;;;;10.00;9.00;;;18.00;99.90;;;;;;4997918;28;20476;-65
2023/06/07 09:32:56;;;;;;;10.20;9.30;;;18.10;99.90;;;;;;4989147;28;20491;-66
2023/06/07 09:35:25;;;;;;;10.33;9.20;;;18.20;99.90;;;;;;4998741;28;20862;-63
2023/06/07 09:37:55;;;;;;;13.43;9.73;;;18.30;99.90;;;;;;4998497;28;20476;-64
2023/06/07 09:40:24;;;;;;;9.33;8.17;;;18.40;99.90;;;;;;4999108;28;20519;-64
2023/06/07 09:42:59;;;;;;;10.60;9.50;;;18.40;99.90;;;;;;4994120;28;20555;-64
2023/06/07 09:45:28;;;;;;;9.67;7.90;;;18.50;99.90;;;;;;5000298;28;21089;-64
2023/06/07 09:48:07;;;;;;;9.63;8.30;;;18.50;99.90;;;;;;4992152;28;20480;-64
2023/06/07 09:50:36;;;;;;;9.20;8.23;;;18.70;99.90;;;;;;4999206;28;20484;-64
2023/06/07 09:53:04;;;;;;;8.70;7.70;;;18.80;99.90;;;;;;4998548;28;20496;-64
2023/06/07 09:55:32;;;;;;;8.80;8.00;;;18.90;99.90;;;;;;5000995;28;20475;-64
2023/06/07 09:58:00;;;;;;;10.37;8.40;;;19.10;99.90;;;;;;4996976;28;20581;-65
2023/06/07 10:00:28;;;;;;;9.27;8.30;;;19.20;99.90;;;;;;5000358;28;20551;-63
2023/06/07 10:03:06;;;;;;;9.40;8.47;;;19.30;99.90;;;;;;4997928;28;20543;-64
2023/06/07 10:05:39;;;;;;;9.67;8.73;;;19.40;99.90;;;;;;5001408;28;20542;-64
2023/06/07 10:08:09;;;;;;;15.83;9.00;;;19.60;99.90;;;;;;5000736;28;20472;-64
2023/06/07 10:10:38;;;;;;;10.23;9.23;;;19.70;99.90;;;;;;4990319;28;20487;-64
2023/06/07 10:13:06;;;;;;;12.60;9.53;;;19.80;99.90;;;;;;4984194;28;20488;-64
2023/06/07 10:15:36;;;;;;;10.20;9.13;;;19.90;99.90;;;;;;4987007;28;20489;-63
2023/06/07 10:18:18;;;;;;;12.07;9.03;;;19.90;99.90;;;;;;5002199;28;20468;-64
2023/06/07 10:20:53;;;;;;;10.37;9.37;;;20.00;99.90;;;;;;5015801;28;21399;-64
2023/06/07 10:23:29;;;;;;;9.40;8.50;;;20.10;99.90;;;;;;4993571;28;20484;-64
2023/06/07 10:26:02;;;;;;;8.73;7.70;;;20.20;99.90;;;;;;4988967;28;21001;-65
2023/06/07 10:28:37;;;;;;;9.07;8.13;;;20.30;99.90;;;;;;4993286;28;20480;-65
2023/06/07 10:31:10;;;;;;;8.33;7.60;;;20.40;99.90;;;;;;4995472;28;20542;-64
2023/06/07 10:33:39;;;;;;;8.77;7.90;;;20.50;99.90;;;;;;4990381;28;20522;-64
2023/06/07 10:36:09;;;;;;;8.20;7.30;;;20.60;99.90;;;;;;5005022;28;21061;-66
2023/06/07 10:38:39;;;;;;;7.40;6.70;;;20.70;99.90;;;;;;5018134;28;20465;-64
2023/06/07 10:41:08;;;;;;;8.07;7.10;;;20.80;99.90;;;;;;5006920;28;20484;-64
2023/06/07 10:43:38;;;;;;;10.60;7.47;;;21.00;99.90;;;;;;4985387;28;20496;-64
2023/06/07 10:46:23;;;;;;;13.30;6.47;;;21.10;99.90;;;;;;4998663;28;20575;-65
2023/06/07 10:48:51;;;;;;;10.77;6.60;;;21.20;99.90;;;;;;4992542;28;20477;-65
2023/06/07 10:51:59;;;;;;;6.07;5.47;;;21.40;99.90;;;;;;4992511;28;20570;-65
2023/06/07 10:54:31;;;;;;;6.97;5.10;;;21.50;99.90;;;;;;4997276;28;20561;-65
2023/06/07 10:57:00;;;;;;;4.87;4.47;;;21.50;99.90;;;;;;4994003;28;20547;-64
2023/06/07 10:59:28;;;;;;;8.60;5.50;;;21.60;99.90;;;;;;4992678;28;20473;-64
2023/06/07 11:02:21;;;;;;;5.30;4.90;;;21.70;99.90;;;;;;4995279;28;20586;-63
2023/06/07 11:04:51;;;;;;;6.43;5.47;;;21.80;99.90;;;;;;4992838;28;20471;-64
2023/06/07 11:07:23;;;;;;;7.73;4.93;;;21.90;99.90;;;;;;4994007;28;20531;-64
2023/06/07 11:10:29;;;;;;;6.17;4.80;;;22.00;99.90;;;;;;4996221;28;20561;-65
2023/06/07 11:12:58;;;;;;;5.37;4.80;;;22.30;99.90;;;;;;4994317;28;20497;-65
2023/06/07 11:15:30;;;;;;;8.10;5.17;;;22.40;99.90;;;;;;4995173;28;21020;-64
2023/06/07 11:18:00;;;;;;;7.90;5.57;;;22.50;99.90;;;;;;4993472;28;20473;-65
2023/06/07 11:20:49;;;;;;;9.03;5.23;;;22.70;99.90;;;;;;4983779;28;20527;-64
2023/06/07 11:23:30;;;;;;;6.70;4.70;;;22.70;99.90;;;;;;4981137;28;20961;-64
2023/06/07 11:26:08;;;;;;;5.53;5.03;;;22.90;99.90;;;;;;4987833;28;20498;-64
2023/06/07 11:28:38;;;;;;;5.80;4.70;;;23.10;99.90;;;;;;4987593;28;21041;-65
2023/06/07 11:31:09;;;;;;;7.50;4.50;;;23.10;99.90;;;;;;4987866;28;20521;-63
2023/06/07 11:33:38;;;;;;;5.13;4.43;;;23.10;99.90;;;;;;4976970;28;20527;-64
2023/06/07 11:36:09;;;;;;;6.77;5.20;;;23.00;99.90;;;;;;4984572;28;20566;-64
2023/06/07 11:38:38;;;;;;;5.70;4.50;;;23.00;99.90;;;;;;4994848;28;20481;-63
2023/06/07 11:41:07;;;;;;;5.90;5.10;;;23.00;99.90;;;;;;4990962;28;20488;-64
2023/06/07 11:43:35;;;;;;;5.67;4.43;;;23.20;99.90;;;;;;4997122;28;20515;-63
2023/06/07 11:46:03;;;;;;;4.87;3.90;;;23.30;99.90;;;;;;4998140;28;20619;-63
2023/06/07 11:48:31;;;;;;;4.90;4.40;;;23.50;99.90;;;;;;4990469;28;20851;-64
2023/06/07 11:51:00;;;;;;;6.83;4.40;;;23.60;99.90;;;;;;4988342;28;21002;-64
2023/06/07 11:53:30;;;;;;;5.70;4.30;;;23.70;99.90;;;;;;4996217;28;20581;-65
2023/06/07 11:56:00;;;;;;;7.07;4.70;;;23.90;99.90;;;;;;4993521;28;20472;-65
2023/06/07 11:58:28;;;;;;;5.53;4.23;;;23.90;99.90;;;;;;4987196;28;20476;-64
2023/06/07 12:00:57;;;;;;;5.00;4.60;;;24.10;99.90;;;;;;4994132;28;20463;-63
2023/06/07 12:03:26;;;;;;;5.33;4.33;;;24.20;99.90;;;;;;4983297;28;21025;-64
2023/06/07 12:05:55;;;;;;;6.43;4.00;;;24.40;99.90;;;;;;4998274;28;20472;-64
2023/06/07 12:08:34;;;;;;;7.33;4.60;;;24.60;99.90;;;;;;4995953;28;20469;-64
2023/06/07 12:11:04;;;;;;;6.27;4.20;;;24.80;99.90;;;;;;4998156;28;20471;-64
2023/06/07 12:13:37;;;;;;;5.10;4.70;;;24.90;99.90;;;;;;4988410;28;20556;-64
2023/06/07 12:16:06;;;;;;;6.00;4.50;;;25.00;99.90;;;;;;4984190;28;20475;-65
2023/06/07 12:18:34;;;;;;;7.30;4.50;;;25.10;99.90;;;;;;4992268;28;20477;-63
2023/06/07 12:21:04;;;;;;;4.80;3.60;;;25.20;99.90;;;;;;5018314;28;20513;-63
2023/06/07 12:23:32;;;;;;;5.70;4.03;;;25.30;99.90;;;;;;5009994;28;20528;-64
2023/06/07 12:26:09;;;;;;;6.60;4.70;;;25.40;99.90;;;;;;4980675;28;21273;-64
2023/06/07 12:28:39;;;;;;;4.17;3.77;;;25.50;99.90;;;;;;4984093;28;20480;-63
2023/06/07 12:31:16;;;;;;;6.53;4.23;;;25.50;99.90;;;;;;4998452;28;20509;-63
2023/06/07 12:33:57;;;;;;;7.87;4.53;;;25.40;99.90;;;;;;4983942;28;20500;-64
2023/06/07 12:36:28;;;;;;;5.63;4.40;;;25.50;99.90;;;;;;5000707;28;20506;-63
2023/06/07 12:38:59;;;;;;;6.23;4.33;;;25.60;99.90;;;;;;4987373;28;20469;-64
2023/06/07 12:41:29;;;;;;;4.87;4.10;;;25.70;99.90;;;;;;4983234;28;20591;-67
2023/06/07 12:43:59;;;;;;;4.50;4.07;;;25.80;99.90;;;;;;4994694;28;20544;-64
2023/06/07 12:46:27;;;;;;;4.80;4.40;;;25.80;97.50;;;;;;4994476;28;20824;-64
2023/06/07 12:48:55;;;;;;;5.03;4.20;;;25.80;99.90;;;;;;5006602;28;20476;-63
2023/06/07 12:51:23;;;;;;;4.73;4.03;;;25.90;99.90;;;;;;4999572;28;20559;-64
2023/06/07 12:53:51;;;;;;;5.70;4.87;;;26.10;99.30;;;;;;5007927;28;21457;-65
2023/06/07 12:56:20;;;;;;;5.47;3.93;;;26.20;92.80;;;;;;5003194;28;20504;-65